Time;durP1;ratioP1;P1;durP2;ratioP2;P2;SDS_P1;SDS_P2;PMS_P1;PMS_P2;Temp;Humidity;BMP_temperature;BMP_pressure;BME280_temperature;BME280_humidity;BME280_pressure;Samples;Min_cycle;Max_cycle;Signal;HPM_P1;HPM_P2
2023/01/14 00:01:51;;;;;;;18.45;2.42;;;8.20;99.90;;;;;;4907017;29;20038;-49
2023/01/14 00:04:16;;;;;;;22.85;2.80;;;8.30;99.90;;;;;;4911190;29;20072;-48
2023/01/14 00:06:42;;;;;;;36.97;3.38;;;8.30;99.90;;;;;;4909140;29;20116;-45
2023/01/14 00:09:11;;;;;;;26.13;3.45;;;8.40;99.90;;;;;;4916714;29;20102;-45
2023/01/14 00:11:46;;;;;;;19.70;2.97;;;8.40;99.90;;;;;;4916488;29;20017;-43
2023/01/14 00:14:14;;;;;;;22.88;3.03;;;8.50;99.90;;;;;;4910408;29;20464;-48
2023/01/14 00:16:41;;;;;;;22.92;2.92;;;8.50;99.90;;;;;;4901687;29;20044;-47
2023/01/14 00:19:07;;;;;;;24.85;3.17;;;8.60;99.90;;;;;;4903915;29;20032;-45
2023/01/14 00:21:32;;;;;;;22.85;3.05;;;8.70;99.90;;;;;;4903423;29;20096;-47
2023/01/14 00:23:58;;;;;;;26.20;3.22;;;8.80;99.90;;;;;;4911391;29;20103;-47
2023/01/14 00:26:25;;;;;;;26.77;3.75;;;8.80;99.90;;;;;;4909323;29;20023;-45
2023/01/14 00:28:52;;;;;;;33.03;3.90;;;8.90;99.90;;;;;;4903442;29;20514;-45
2023/01/14 00:31:24;;;;;;;22.40;3.40;;;8.90;99.90;;;;;;4915344;29;20380;-48
2023/01/14 00:33:50;;;;;;;34.53;4.82;;;9.00;99.90;;;;;;4913401;29;20134;-47
2023/01/14 00:36:17;;;;;;;26.40;3.13;;;9.00;99.90;;;;;;4905330;29;20016;-44
2023/01/14 00:38:43;;;;;;;19.63;3.15;;;9.10;99.90;;;;;;4905220;29;20070;-45
2023/01/14 00:41:13;;;;;;;31.75;5.03;;;9.10;99.90;;;;;;4912728;29;20072;-45
2023/01/14 00:43:40;;;;;;;;;;;9.20;99.90;;;;;;4910496;29;20028;-45
2023/01/14 00:46:09;;;;;;;30.80;3.65;;;9.20;99.90;;;;;;4910547;29;20010;-44
2023/01/14 00:48:36;;;;;;;36.15;5.30;;;9.20;99.90;;;;;;4902546;29;20430;-44
2023/01/14 00:51:02;;;;;;;30.60;3.85;;;9.20;99.90;;;;;;4898679;29;20103;-44
2023/01/14 00:53:28;;;;;;;28.52;3.67;;;9.30;99.90;;;;;;4908526;29;20068;-44
2023/01/14 00:55:54;;;;;;;29.65;3.45;;;9.30;99.90;;;;;;4907031;29;20447;-44
2023/01/14 00:58:20;;;;;;;25.17;3.90;;;9.40;99.90;;;;;;4908552;29;20040;-44
2023/01/14 01:00:46;;;;;;;24.25;4.38;;;9.40;99.90;;;;;;4906381;29;20071;-51
2023/01/14 01:03:12;;;;;;;30.05;4.35;;;9.40;99.90;;;;;;4903093;29;20037;-43
2023/01/14 01:05:38;;;;;;;27.05;4.43;;;9.40;99.90;;;;;;4914542;29;20051;-43
2023/01/14 01:08:05;;;;;;;28.35;4.60;;;9.40;99.90;;;;;;4899318;29;20035;-44
2023/01/14 01:10:34;;;;;;;28.83;3.90;;;9.40;99.90;;;;;;4908420;29;20059;-48
2023/01/14 01:13:00;;;;;;;37.40;4.30;;;9.40;99.90;;;;;;4904156;29;20040;-45
2023/01/14 01:15:26;;;;;;;28.40;4.05;;;9.50;99.90;;;;;;4903948;29;20491;-44
2023/01/14 01:17:52;;;;;;;26.83;4.63;;;9.40;99.90;;;;;;4906027;29;20024;-46
2023/01/14 01:20:17;;;;;;;27.33;3.85;;;9.40;99.90;;;;;;4910226;29;20033;-44
2023/01/14 01:22:43;;;;;;;24.17;3.65;;;9.50;99.90;;;;;;4912473;29;20034;-44
2023/01/14 01:25:09;;;;;;;18.50;2.97;;;9.50;99.90;;;;;;4910270;29;20032;-44
2023/01/14 01:27:34;;;;;;;23.35;3.33;;;9.50;99.90;;;;;;4907052;29;20085;-44
2023/01/14 01:30:00;;;;;;;21.90;3.22;;;9.50;99.90;;;;;;4903183;29;20054;-45
2023/01/14 01:32:26;;;;;;;24.92;3.53;;;9.40;99.90;;;;;;4912800;29;20024;-44
2023/01/14 01:34:51;;;;;;;23.20;4.05;;;9.40;99.90;;;;;;4900918;29;20076;-49
2023/01/14 01:37:17;;;;;;;23.00;3.40;;;9.40;99.90;;;;;;4904770;29;20076;-44
2023/01/14 01:39:43;;;;;;;27.08;3.17;;;9.40;99.90;;;;;;4901461;29;20417;-44
2023/01/14 01:42:21;;;;;;;27.40;3.50;;;9.40;99.90;;;;;;4903126;29;20067;-49
2023/01/14 01:44:47;;;;;;;22.60;3.20;;;9.40;99.90;;;;;;4900273;29;20480;-53
2023/01/14 01:47:13;;;;;;;24.55;3.45;;;9.30;99.90;;;;;;4875676;29;1116434;-47
2023/01/14 01:49:39;;;;;;;24.17;3.00;;;9.30;99.90;;;;;;4906701;29;20444;-44
2023/01/14 01:52:13;;;;;;;21.60;3.92;;;9.30;99.90;;;;;;4902524;29;20047;-45
2023/01/14 01:54:48;;;;;;;28.85;4.15;;;9.30;99.90;;;;;;4906941;29;20035;-47
2023/01/14 01:57:16;;;;;;;25.75;3.33;;;9.30;99.90;;;;;;4903393;29;20056;-44
2023/01/14 01:59:48;;;;;;;26.63;4.45;;;9.20;99.90;;;;;;4910848;29;20236;-47
2023/01/14 02:02:15;;;;;;;34.33;4.07;;;9.20;99.90;;;;;;4903825;29;20016;-49
2023/01/14 02:04:40;;;;;;;27.55;4.57;;;9.10;99.90;;;;;;4908785;29;20032;-46
2023/01/14 02:07:16;;;;;;;31.25;3.65;;;9.20;99.90;;;;;;4914497;29;20381;-52
2023/01/14 02:09:41;;;;;;;26.10;3.40;;;9.20;99.90;;;;;;4906887;29;20043;-44
2023/01/14 02:12:15;;;;;;;31.33;3.78;;;9.20;99.90;;;;;;4910988;29;20043;-45
2023/01/14 02:14:59;;;;;;;18.02;3.22;;;9.20;99.90;;;;;;4910033;29;20036;-44
2023/01/14 02:17:52;;;;;;;28.83;3.63;;;9.20;99.90;;;;;;4907075;29;20083;-44
2023/01/14 02:20:33;;;;;;;25.95;3.60;;;9.20;99.90;;;;;;4896034;29;20059;-44
2023/01/14 02:23:13;;;;;;;19.88;2.70;;;9.20;99.90;;;;;;4909538;29;20518;-44
2023/01/14 02:26:11;;;;;;;18.20;2.67;;;9.20;99.90;;;;;;4908947;29;20121;-44
2023/01/14 02:29:04;;;;;;;18.77;3.70;;;9.20;99.90;;;;;;4899920;29;20040;-44
2023/01/14 02:31:45;;;;;;;20.55;3.13;;;9.20;99.90;;;;;;4897216;29;20040;-43
2023/01/14 02:34:20;;;;;;;25.02;3.67;;;9.20;99.90;;;;;;4898808;29;20402;-48
2023/01/14 02:37:01;;;;;;;17.02;2.83;;;9.20;99.90;;;;;;4897870;29;20028;-43
2023/01/14 02:39:38;;;;;;;17.90;2.78;;;9.20;99.90;;;;;;4897573;29;20392;-43
2023/01/14 02:45:33;;;;;;;24.02;3.45;;;9.20;99.90;;;;;;4910511;29;20563;-43
2023/01/14 02:48:01;;;;;;;21.02;3.75;;;9.20;99.90;;;;;;4903932;29;20052;-44
2023/01/14 02:50:30;;;;;;;10.68;2.78;;;9.10;99.90;;;;;;4904524;29;20038;-43
2023/01/14 02:52:56;;;;;;;14.63;2.50;;;9.10;99.90;;;;;;4907014;29;20035;-48
2023/01/14 02:55:36;;;;;;;13.73;1.70;;;9.00;99.90;;;;;;4900224;29;20036;-48
2023/01/14 02:58:14;;;;;;;12.20;1.90;;;9.00;99.90;;;;;;4910514;29;20020;-45
2023/01/14 03:00:52;;;;;;;20.25;3.22;;;9.00;99.90;;;;;;4896837;29;20032;-47
2023/01/14 03:03:17;;;;;;;14.10;2.05;;;8.90;99.90;;;;;;4899978;29;20024;-50
2023/01/14 03:06:20;;;;;;;17.63;2.40;;;8.90;99.90;;;;;;4909337;29;20035;-46
2023/01/14 03:08:51;;;;;;;16.80;2.03;;;8.90;99.90;;;;;;4889985;29;20040;-46
2023/01/14 03:11:17;;;;;;;12.40;2.28;;;8.90;99.90;;;;;;4906290;29;20119;-50
2023/01/14 03:13:48;;;;;;;10.70;1.60;;;8.90;99.90;;;;;;4909455;29;20112;-44
2023/01/14 03:16:36;;;;;;;10.43;1.63;;;8.90;99.90;;;;;;4912299;29;20067;-52
2023/01/14 03:19:13;;;;;;;11.43;1.90;;;8.90;99.90;;;;;;4899922;29;20076;-49
2023/01/14 03:21:43;;;;;;;13.27;2.38;;;9.00;99.90;;;;;;4909582;29;20058;-44
2023/01/14 03:24:22;;;;;;;12.35;1.90;;;9.00;99.90;;;;;;4914323;29;20016;-45
2023/01/14 03:26:49;;;;;;;11.57;2.28;;;9.00;99.90;;;;;;4904703;29;20519;-44
2023/01/14 03:29:27;;;;;;;16.33;1.83;;;9.10;99.90;;;;;;4901638;29;20033;-52
2023/01/14 03:32:06;;;;;;;7.75;1.70;;;9.10;99.90;;;;;;4901550;29;20746;-52
2023/01/14 03:34:43;;;;;;;12.35;2.40;;;9.10;99.90;;;;;;4913104;29;20028;-44
2023/01/14 03:37:12;;;;;;;12.63;2.70;;;9.10;99.90;;;;;;4899374;29;20025;-48
2023/01/14 03:39:42;;;;;;;14.15;2.13;;;9.10;99.90;;;;;;4905374;29;20113;-45
2023/01/14 03:42:18;;;;;;;;;;;9.00;99.90;;;;;;4900605;29;20033;-44
2023/01/14 03:44:47;;;;;;;13.20;2.10;;;9.00;99.90;;;;;;4905569;29;19912;-46
2023/01/14 03:47:13;;;;;;;11.95;1.90;;;9.10;99.90;;;;;;4911698;29;20048;-43
2023/01/14 03:49:39;;;;;;;15.48;2.75;;;9.10;99.90;;;;;;4914544;29;20040;-43
2023/01/14 03:52:26;;;;;;;18.65;3.20;;;9.10;99.90;;;;;;4918084;29;20476;-43
2023/01/14 03:55:09;;;;;;;11.48;2.45;;;9.10;99.90;;;;;;4915073;29;20039;-47
2023/01/14 03:57:45;;;;;;;9.32;1.88;;;9.10;99.90;;;;;;4909468;29;20040;-44
2023/01/14 04:00:21;;;;;;;13.65;2.42;;;9.20;99.90;;;;;;4902383;29;20033;-45
2023/01/14 04:02:48;;;;;;;9.52;2.38;;;9.20;99.90;;;;;;4912629;29;20101;-49
2023/01/14 04:05:14;;;;;;;9.10;2.30;;;9.20;99.90;;;;;;4908066;29;20052;-49
2023/01/14 04:07:40;;;;;;;6.43;1.77;;;9.20;99.90;;;;;;4909491;29;20185;-48
2023/01/14 04:10:06;;;;;;;13.02;2.30;;;9.30;99.90;;;;;;4915269;29;20103;-50
2023/01/14 04:12:31;;;;;;;15.95;3.20;;;9.20;99.90;;;;;;4914459;29;20028;-43
2023/01/14 04:17:41;;;;;;;12.98;2.13;;;9.30;99.90;;;;;;4914603;29;20042;-46
2023/01/14 04:20:08;;;;;;;15.70;2.55;;;9.30;99.90;;;;;;4901639;29;20837;-51
2023/01/14 04:22:33;;;;;;;12.60;3.00;;;9.30;99.90;;;;;;4915555;29;20028;-44
2023/01/14 04:24:59;;;;;;;12.05;2.35;;;9.30;99.90;;;;;;4902644;29;20027;-52
2023/01/14 04:27:25;;;;;;;14.10;2.20;;;9.30;99.90;;;;;;4902434;29;20095;-43
2023/01/14 04:29:50;;;;;;;7.75;1.92;;;9.30;99.90;;;;;;4904364;29;20032;-50
2023/01/14 04:32:16;;;;;;;12.95;2.10;;;9.30;99.90;;;;;;4905862;29;20025;-49
2023/01/14 04:34:41;;;;;;;9.30;1.95;;;9.40;99.90;;;;;;4902882;29;20032;-51
2023/01/14 04:37:10;;;;;;;14.75;2.58;;;9.40;99.90;;;;;;4909882;29;20788;-47
2023/01/14 04:39:35;;;;;;;12.75;2.08;;;9.40;99.90;;;;;;4903865;29;20074;-46
2023/01/14 04:44:47;;;;;;;12.13;2.13;;;9.40;99.90;;;;;;4910643;29;20044;-43
2023/01/14 04:47:14;;;;;;;15.32;2.60;;;9.50;99.90;;;;;;4908869;29;20474;-44
2023/01/14 04:49:39;;;;;;;11.93;2.13;;;9.50;99.90;;;;;;4915428;29;20456;-52
2023/01/14 04:52:05;;;;;;;11.88;1.55;;;9.60;99.90;;;;;;4904197;29;20425;-50
2023/01/14 04:54:31;;;;;;;6.78;1.55;;;9.60;99.90;;;;;;4908645;29;20392;-55
2023/01/14 04:56:56;;;;;;;14.35;3.13;;;9.60;99.90;;;;;;4906584;29;20028;-47
2023/01/14 04:59:22;;;;;;;10.90;2.80;;;9.60;99.90;;;;;;4914561;29;20483;-55
2023/01/14 05:01:47;;;;;;;15.77;2.13;;;9.70;99.90;;;;;;4913143;29;20028;-54
2023/01/14 05:04:13;;;;;;;17.83;2.28;;;9.70;99.90;;;;;;4904776;29;20039;-47
2023/01/14 05:06:39;;;;;;;17.63;2.75;;;9.70;99.90;;;;;;4908785;29;20114;-45
2023/01/14 05:09:04;;;;;;;18.90;2.30;;;9.70;99.90;;;;;;4899600;29;20051;-45
2023/01/14 05:11:30;;;;;;;19.42;2.92;;;9.70;99.90;;;;;;4897732;29;20020;-46
2023/01/14 05:13:56;;;;;;;16.30;2.65;;;9.70;99.90;;;;;;4898871;29;20381;-51
2023/01/14 05:16:23;;;;;;;22.45;2.53;;;9.70;99.90;;;;;;4909350;29;20402;-52
2023/01/14 05:18:50;;;;;;;19.58;3.55;;;9.70;99.90;;;;;;4897924;29;20040;-44
2023/01/14 05:21:17;;;;;;;17.35;2.78;;;9.70;99.90;;;;;;4897577;29;20059;-49
2023/01/14 05:23:43;;;;;;;19.45;2.80;;;9.70;99.90;;;;;;4897492;29;20480;-49
2023/01/14 05:26:09;;;;;;;23.40;3.25;;;9.70;99.90;;;;;;4897389;29;20104;-49
2023/01/14 05:28:36;;;;;;;25.27;2.72;;;9.70;99.90;;;;;;4897289;29;20042;-47
2023/01/14 05:31:01;;;;;;;20.45;3.28;;;9.70;99.90;;;;;;4898573;29;20508;-42
2023/01/14 05:33:27;;;;;;;18.02;3.33;;;9.70;99.90;;;;;;4908893;29;20092;-42
2023/01/14 05:35:57;;;;;;;30.63;3.67;;;9.60;99.90;;;;;;4897367;29;20032;-42
2023/01/14 05:38:24;;;;;;;19.63;3.00;;;9.70;99.90;;;;;;4897238;29;20025;-47
2023/01/14 05:40:50;;;;;;;21.17;3.08;;;9.70;99.90;;;;;;4897171;29;20028;-45
2023/01/14 05:46:15;;;;;;;22.20;2.88;;;9.70;99.90;;;;;;4897132;29;20104;-44
2023/01/14 05:48:40;;;;;;;30.27;3.47;;;9.70;99.90;;;;;;4897107;29;20033;-46
2023/01/14 05:51:06;;;;;;;28.27;4.13;;;9.70;99.90;;;;;;4896781;29;20415;-50
2023/01/14 05:53:32;;;;;;;39.95;5.00;;;9.70;99.90;;;;;;4896658;29;20043;-42
2023/01/14 05:55:59;;;;;;;28.63;3.22;;;9.60;99.90;;;;;;4896660;29;20026;-54
2023/01/14 05:58:25;;;;;;;23.35;3.65;;;9.60;99.90;;;;;;4896656;29;20028;-46
2023/01/14 06:06:38;;;;;;;26.65;3.33;;;9.60;99.90;;;;;;4906754;29;20177;-45
2023/01/14 06:09:09;;;;;;;22.23;2.90;;;9.60;99.90;;;;;;4896302;29;20400;-46
2023/01/14 06:11:35;;;;;;;27.42;3.85;;;9.60;99.90;;;;;;4895912;29;20032;-44
2023/01/14 06:14:02;;;;;;;29.48;4.18;;;9.50;99.90;;;;;;4895628;29;20506;-49
2023/01/14 06:16:32;;;;;;;29.90;3.78;;;9.50;99.90;;;;;;4896199;29;20028;-46
2023/01/14 06:18:58;;;;;;;30.10;3.33;;;9.50;99.90;;;;;;4896105;29;20548;-43
2023/01/14 06:21:29;;;;;;;22.00;3.92;;;9.50;99.90;;;;;;4896138;29;20104;-50
2023/01/14 06:23:55;;;;;;;31.83;3.38;;;9.50;99.90;;;;;;4897667;29;20115;-48
2023/01/14 06:26:23;;;;;;;43.88;5.03;;;9.50;99.90;;;;;;4899167;29;20024;-47
2023/01/14 06:28:49;;;;;;;32.08;3.47;;;9.40;99.90;;;;;;4901453;29;20047;-52
2023/01/14 06:31:17;;;;;;;25.70;3.30;;;9.40;99.90;;;;;;4902133;29;20025;-47
2023/01/14 06:33:43;;;;;;;27.67;3.70;;;9.40;99.90;;;;;;4910691;29;20322;-43
2023/01/14 06:36:11;;;;;;;25.33;4.18;;;9.40;99.90;;;;;;4905879;29;20027;-43
2023/01/14 06:38:38;;;;;;;24.55;3.10;;;9.30;99.90;;;;;;4906279;29;20028;-44
2023/01/14 06:41:05;;;;;;;27.65;2.80;;;9.30;99.90;;;;;;4906994;29;20025;-50
2023/01/14 06:43:32;;;;;;;22.02;3.38;;;9.30;99.90;;;;;;4907647;29;20028;-44
2023/01/14 06:45:58;;;;;;;28.52;3.30;;;9.30;99.90;;;;;;4908893;29;20044;-43
2023/01/14 06:48:25;;;;;;;20.88;2.53;;;9.30;99.90;;;;;;4914701;29;20049;-43
2023/01/14 06:50:51;;;;;;;25.48;3.70;;;9.30;99.90;;;;;;4914913;29;20032;-44
2023/01/14 06:53:17;;;;;;;23.13;3.75;;;9.40;99.90;;;;;;4908480;29;20028;-49
2023/01/14 06:55:43;;;;;;;27.42;2.72;;;9.40;99.90;;;;;;4914979;29;20171;-45
2023/01/14 06:58:09;;;;;;;15.95;2.83;;;9.40;99.90;;;;;;4908144;29;20547;-46
2023/01/14 07:00:36;;;;;;;30.20;3.83;;;9.40;99.90;;;;;;4899213;29;20024;-49
2023/01/14 07:03:01;;;;;;;29.08;3.08;;;9.40;99.90;;;;;;4900023;29;20100;-44
2023/01/14 07:05:27;;;;;;;23.08;3.15;;;9.40;99.90;;;;;;4909202;29;20056;-46
2023/01/14 07:07:53;;;;;;;20.25;3.28;;;9.50;99.90;;;;;;4899442;29;20425;-44
2023/01/14 07:10:19;;;;;;;26.33;3.78;;;9.60;99.90;;;;;;4902338;29;20032;-51
2023/01/14 07:12:49;;;;;;;22.50;2.92;;;9.60;99.90;;;;;;4914021;29;20028;-44
2023/01/14 07:15:17;;;;;;;22.23;3.33;;;9.70;99.90;;;;;;4914370;29;20464;-50
2023/01/14 07:17:45;;;;;;;20.80;2.88;;;9.70;99.90;;;;;;4913714;29;20455;-49
2023/01/14 07:20:11;;;;;;;24.25;2.75;;;9.80;99.90;;;;;;4914596;29;20020;-45
2023/01/14 07:22:37;;;;;;;23.63;2.72;;;9.80;99.90;;;;;;4905162;29;20088;-48
2023/01/14 07:25:05;;;;;;;21.10;3.03;;;9.90;99.90;;;;;;4914505;29;20492;-46
2023/01/14 07:27:31;;;;;;;28.63;3.58;;;10.00;99.90;;;;;;4914261;29;20070;-44
2023/01/14 07:29:57;;;;;;;22.20;3.03;;;10.00;99.90;;;;;;4907420;29;20523;-50
2023/01/14 07:32:23;;;;;;;30.83;3.53;;;10.00;99.90;;;;;;4910572;29;20075;-45
2023/01/14 07:34:49;;;;;;;28.40;3.30;;;10.00;99.90;;;;;;4914377;29;20028;-44
2023/01/14 07:37:14;;;;;;;23.60;3.38;;;10.10;99.90;;;;;;4914495;29;20036;-48
2023/01/14 07:39:40;;;;;;;20.02;2.88;;;10.10;99.90;;;;;;4914195;29;20031;-48
2023/01/14 07:42:06;;;;;;;14.77;2.70;;;10.20;99.90;;;;;;4914371;29;20159;-53
2023/01/14 07:44:31;;;;;;;24.15;4.07;;;10.20;99.90;;;;;;4914215;29;20028;-44
2023/01/14 07:46:57;;;;;;;24.52;3.47;;;10.20;99.90;;;;;;4914279;29;20500;-45
2023/01/14 07:49:24;;;;;;;25.67;3.35;;;10.30;99.90;;;;;;4914265;29;20051;-48
2023/01/14 07:51:50;;;;;;;27.35;3.88;;;10.30;99.90;;;;;;4914312;29;20176;-47
2023/01/14 07:54:17;;;;;;;23.65;3.30;;;10.30;99.90;;;;;;4914298;29;20609;-47
2023/01/14 07:56:42;;;;;;;22.38;2.75;;;10.40;99.90;;;;;;4911446;29;20095;-44
2023/01/14 07:59:08;;;;;;;22.15;2.97;;;10.40;99.90;;;;;;4911710;29;20139;-55
2023/01/14 08:01:34;;;;;;;21.23;3.10;;;10.40;99.90;;;;;;4908767;29;20144;-49
2023/01/14 08:04:00;;;;;;;20.60;3.25;;;10.40;99.90;;;;;;4911566;29;20484;-50
2023/01/14 08:06:26;;;;;;;15.68;2.65;;;10.40;99.90;;;;;;4911404;29;20135;-51
2023/01/14 08:08:51;;;;;;;21.40;2.50;;;10.50;99.90;;;;;;4896622;29;20137;-48
2023/01/14 08:11:17;;;;;;;20.02;3.28;;;10.50;99.90;;;;;;4894992;29;20119;-47
2023/01/14 08:13:43;;;;;;;25.67;3.17;;;10.50;99.90;;;;;;4893529;29;20033;-47
2023/01/14 08:16:09;;;;;;;30.23;3.03;;;10.50;99.90;;;;;;4895147;29;20746;-47
2023/01/14 08:18:35;;;;;;;20.40;1.98;;;10.60;99.90;;;;;;4894821;29;20164;-46
2023/01/14 08:21:05;;;;;;;20.23;3.03;;;10.60;99.90;;;;;;4894986;29;20016;-48
2023/01/14 08:23:34;;;;;;;25.15;3.05;;;10.60;99.90;;;;;;4901343;29;20084;-48
2023/01/14 08:26:01;;;;;;;22.88;2.42;;;10.60;99.90;;;;;;4904722;29;20060;-48
2023/01/14 08:28:27;;;;;;;24.25;2.92;;;10.60;99.90;;;;;;4909330;29;20044;-44
2023/01/14 08:31:13;;;;;;;18.35;2.63;;;10.60;99.90;;;;;;4908115;29;20108;-47
2023/01/14 08:33:40;;;;;;;25.67;3.38;;;10.60;99.90;;;;;;4909485;29;20032;-48
2023/01/14 08:36:15;;;;;;;22.85;4.15;;;10.70;99.90;;;;;;4917107;29;20024;-48
2023/01/14 08:38:44;;;;;;;30.60;4.35;;;10.60;99.90;;;;;;4899719;29;20040;-44
2023/01/14 08:41:12;;;;;;;19.70;3.67;;;10.60;99.90;;;;;;4915278;29;20024;-45
2023/01/14 08:43:39;;;;;;;30.50;4.65;;;10.60;99.90;;;;;;4916935;29;20031;-46
2023/01/14 08:46:07;;;;;;;22.27;3.20;;;10.70;99.90;;;;;;4916233;29;20055;-47
2023/01/14 08:48:33;;;;;;;27.40;3.00;;;10.70;99.90;;;;;;4916541;29;20079;-45
2023/01/14 08:51:06;;;;;;;20.02;2.63;;;10.70;99.90;;;;;;4913691;29;20399;-45
2023/01/14 08:53:34;;;;;;;31.10;4.30;;;10.60;99.90;;;;;;4905326;29;20499;-45
2023/01/14 08:56:01;;;;;;;23.23;2.50;;;10.70;99.90;;;;;;4916923;29;20036;-48
2023/01/14 08:58:27;;;;;;;22.75;2.95;;;10.70;99.90;;;;;;4916714;29;20044;-46
2023/01/14 09:00:56;;;;;;;20.35;3.00;;;10.70;99.90;;;;;;4916794;29;20451;-45
2023/01/14 09:03:22;;;;;;;38.40;4.30;;;10.70;99.90;;;;;;4916325;29;20075;-45
2023/01/14 09:05:48;;;;;;;23.80;3.58;;;10.70;99.90;;;;;;4916647;29;20036;-45
2023/01/14 09:19:13;;;;;;;25.90;2.78;;;10.70;99.90;;;;;;4897718;29;20047;-48
2023/01/14 09:21:39;;;;;;;27.77;3.38;;;10.80;99.90;;;;;;4897547;29;20393;-45
2023/01/14 09:24:05;;;;;;;34.03;4.35;;;10.70;99.90;;;;;;4897245;29;20063;-44
2023/01/14 09:26:31;;;;;;;32.40;3.85;;;10.80;99.90;;;;;;4897113;29;20413;-47
2023/01/14 09:28:56;;;;;;;34.95;3.75;;;10.80;99.90;;;;;;4897141;29;20036;-45
2023/01/14 09:31:22;;;;;;;33.35;5.10;;;10.90;99.90;;;;;;4897579;29;20055;-47
2023/01/14 09:33:47;;;;;;;22.48;2.25;;;10.80;99.90;;;;;;4897293;29;20481;-45
2023/01/14 09:36:13;;;;;;;29.63;3.35;;;10.80;99.90;;;;;;4897029;29;20034;-44
2023/01/14 09:38:39;;;;;;;24.75;2.88;;;10.90;99.90;;;;;;4897172;29;20489;-44
2023/01/14 09:41:04;;;;;;;20.08;3.65;;;10.90;99.90;;;;;;4896174;29;20695;-45
2023/01/14 09:43:31;;;;;;;25.35;3.85;;;10.90;99.90;;;;;;4897141;29;20334;-45
2023/01/14 09:45:59;;;;;;;25.40;3.00;;;10.90;99.90;;;;;;4896904;29;20048;-48
2023/01/14 09:48:27;;;;;;;25.52;3.30;;;11.00;99.90;;;;;;4897036;29;20044;-52
2023/01/14 09:51:37;;;;;;;24.20;3.65;;;11.00;99.90;;;;;;4902998;29;20051;-45
2023/01/14 09:54:15;;;;;;;29.17;4.15;;;11.00;99.90;;;;;;4913565;29;20036;-49
2023/01/14 09:57:01;;;;;;;24.02;3.78;;;10.90;99.90;;;;;;4915545;29;20038;-52
2023/01/14 09:59:51;;;;;;;28.05;4.25;;;11.00;99.90;;;;;;4910370;29;20499;-46
2023/01/14 10:02:26;;;;;;;26.25;3.15;;;11.00;99.90;;;;;;4906863;29;20504;-45
2023/01/14 10:05:19;;;;;;;30.10;4.10;;;11.00;99.90;;;;;;4906486;29;20059;-48
2023/01/14 10:07:45;;;;;;;20.33;3.13;;;11.00;99.90;;;;;;4896549;29;20033;-47
2023/01/14 10:10:32;;;;;;;24.00;3.88;;;11.10;99.90;;;;;;4896307;29;20036;-44
2023/01/14 10:13:03;;;;;;;22.27;3.67;;;11.00;99.90;;;;;;4896392;29;20433;-47
2023/01/14 10:15:40;;;;;;;19.63;3.38;;;11.10;99.90;;;;;;4896332;29;20108;-48
2023/01/14 10:18:33;;;;;;;19.15;4.00;;;11.10;99.90;;;;;;4896282;29;20162;-45
2023/01/14 10:21:09;;;;;;;21.00;2.83;;;11.10;99.90;;;;;;4896316;29;20029;-47
2023/01/14 10:23:39;;;;;;;23.23;3.88;;;11.10;99.90;;;;;;4896460;29;20027;-46
2023/01/14 10:26:12;;;;;;;25.73;3.20;;;11.10;99.90;;;;;;4896274;29;20038;-48
2023/01/14 10:28:38;;;;;;;26.95;5.15;;;11.10;99.90;;;;;;4896175;29;20037;-45
2023/01/14 10:31:05;;;;;;;21.30;3.42;;;11.10;99.90;;;;;;4895926;29;20036;-47
2023/01/14 10:33:31;;;;;;;27.20;3.30;;;11.10;99.90;;;;;;4895462;29;20531;-49
2023/01/14 10:36:01;;;;;;;21.08;2.65;;;11.10;99.90;;;;;;4895716;29;20107;-50
2023/01/14 10:38:27;;;;;;;22.08;2.97;;;11.10;99.90;;;;;;4896062;29;20028;-49
2023/01/14 10:41:02;;;;;;;25.33;3.50;;;11.10;99.90;;;;;;4895940;29;20056;-48
2023/01/14 10:43:33;;;;;;;19.20;2.70;;;11.10;99.90;;;;;;4894551;29;20029;-45
2023/01/14 10:45:59;;;;;;;20.23;2.60;;;11.10;99.90;;;;;;4895907;29;20040;-47
2023/01/14 10:48:25;;;;;;;22.48;3.00;;;11.00;99.90;;;;;;4895971;29;20040;-46
2023/01/14 10:50:52;;;;;;;23.52;4.40;;;11.10;99.90;;;;;;4895730;29;20024;-54
2023/01/14 10:53:23;;;;;;;16.88;3.00;;;11.10;99.90;;;;;;4895777;29;20036;-49
2023/01/14 10:55:56;;;;;;;23.77;2.75;;;11.10;99.90;;;;;;4895874;29;20036;-50
2023/01/14 10:58:27;;;;;;;12.05;2.40;;;11.10;99.90;;;;;;4894488;29;20021;-45
2023/01/14 11:01:03;;;;;;;18.88;3.13;;;11.10;99.90;;;;;;4896026;29;20035;-45
2023/01/14 11:03:32;;;;;;;17.30;2.33;;;11.10;99.90;;;;;;4895518;29;20063;-46
2023/01/14 11:05:59;;;;;;;13.30;1.90;;;11.10;99.90;;;;;;4908591;29;20028;-47
2023/01/14 11:08:41;;;;;;;14.93;2.30;;;11.10;99.90;;;;;;4900425;29;20059;-53
2023/01/14 11:11:13;;;;;;;15.23;2.97;;;11.10;99.90;;;;;;4895356;29;20072;-46
2023/01/14 11:13:44;;;;;;;10.75;1.98;;;11.20;99.90;;;;;;4895668;29;20033;-45
2023/01/14 11:16:21;;;;;;;18.35;3.00;;;11.20;99.90;;;;;;4895861;29;20028;-50
2023/01/14 11:19:31;;;;;;;13.93;2.03;;;11.20;99.90;;;;;;4895833;29;20028;-47
2023/01/14 11:22:00;;;;;;;8.10;1.95;;;11.20;99.90;;;;;;4863782;29;20044;-49
2023/01/14 11:24:38;;;;;;;17.42;2.10;;;11.20;99.90;;;;;;4910976;29;20025;-49
2023/01/14 11:27:06;;;;;;;17.85;2.38;;;11.20;99.90;;;;;;4900142;29;20428;-50
2023/01/14 11:29:36;;;;;;;16.50;2.10;;;11.30;99.90;;;;;;4902812;29;20507;-50
2023/01/14 11:32:09;;;;;;;10.88;1.75;;;11.30;99.90;;;;;;4898089;29;20076;-47
2023/01/14 11:34:40;;;;;;;11.48;2.17;;;11.30;99.90;;;;;;4902778;29;20031;-49
2023/01/14 11:37:13;;;;;;;19.95;3.58;;;11.30;99.90;;;;;;4899876;29;20071;-47
2023/01/14 11:39:40;;;;;;;17.45;2.40;;;11.30;99.90;;;;;;4903600;29;20096;-46
2023/01/14 11:42:40;;;;;;;15.75;3.50;;;11.30;99.90;;;;;;4895231;29;20017;-53
2023/01/14 11:45:12;;;;;;;14.02;1.88;;;11.30;99.90;;;;;;4898321;29;20039;-53
2023/01/14 11:47:46;;;;;;;15.05;2.03;;;11.30;99.90;;;;;;4905949;29;20059;-50
2023/01/14 11:50:16;;;;;;;13.82;1.83;;;11.30;99.90;;;;;;4899887;29;20032;-45
2023/01/14 11:53:05;;;;;;;20.63;2.33;;;11.30;99.90;;;;;;4907086;29;20033;-51
2023/01/14 11:55:34;;;;;;;13.20;2.08;;;11.40;99.90;;;;;;4895036;29;20021;-47
2023/01/14 11:58:03;;;;;;;;;;;11.40;99.90;;;;;;4904498;29;20444;-46
2023/01/14 12:00:30;;;;;;;17.20;2.45;;;11.40;99.90;;;;;;4903787;29;19911;-50
2023/01/14 12:03:01;;;;;;;14.10;1.85;;;11.40;99.90;;;;;;4901470;29;20062;-50
2023/01/14 12:05:28;;;;;;;16.90;2.33;;;11.40;99.90;;;;;;4907517;29;20452;-47
2023/01/14 12:07:59;;;;;;;16.67;1.63;;;11.40;99.90;;;;;;4909704;29;20038;-49
2023/01/14 12:10:35;;;;;;;12.63;2.13;;;11.40;99.90;;;;;;4907618;29;20530;-49
2023/01/14 12:19:10;;;;;;;8.70;1.38;;;11.50;99.90;;;;;;4905644;29;20436;-49
2023/01/14 12:21:42;;;;;;;10.82;1.42;;;11.50;99.90;;;;;;4908057;29;20427;-52
2023/01/14 12:24:29;;;;;;;8.98;1.15;;;11.50;99.90;;;;;;4908516;29;20483;-52
2023/01/14 12:26:59;;;;;;;12.60;1.50;;;11.50;99.90;;;;;;4913117;29;20024;-52
2023/01/14 12:29:31;;;;;;;;;;;11.50;99.90;;;;;;4903633;29;20036;-46
2023/01/14 12:32:14;;;;;;;8.93;1.80;;;11.60;99.90;;;;;;4905768;29;19993;-47
2023/01/14 12:34:49;;;;;;;7.80;2.17;;;11.50;99.90;;;;;;4917246;29;20055;-45
2023/01/14 12:37:23;;;;;;;6.30;1.95;;;11.60;99.90;;;;;;4917180;29;20031;-51
2023/01/14 12:45:44;;;;;;;;;;;11.60;99.90;;;;;;4917266;29;20039;-48
2023/01/14 12:48:12;;;;;;;7.82;1.30;;;11.60;99.90;;;;;;4916578;29;19978;-49
2023/01/14 12:50:52;;;;;;;10.20;1.55;;;11.60;99.90;;;;;;4914713;29;20032;-50
2023/01/14 12:53:28;;;;;;;7.47;1.55;;;11.60;99.90;;;;;;4901089;29;20025;-46
2023/01/14 12:55:56;;;;;;;6.72;1.05;;;11.70;99.90;;;;;;4904366;29;20028;-48
2023/01/14 12:58:25;;;;;;;6.05;1.30;;;11.60;99.90;;;;;;4900769;29;20025;-48
2023/01/14 13:00:58;;;;;;;11.35;1.20;;;11.60;99.90;;;;;;4903044;29;20028;-52
2023/01/14 13:03:33;;;;;;;10.90;2.08;;;11.60;99.90;;;;;;4901634;29;20565;-48
2023/01/14 13:06:08;;;;;;;12.68;2.55;;;11.60;99.90;;;;;;4910120;29;20055;-48
2023/01/14 13:08:36;;;;;;;11.90;1.90;;;11.60;99.90;;;;;;4901649;29;20163;-46
2023/01/14 13:11:36;;;;;;;9.35;1.75;;;11.60;99.90;;;;;;4897844;29;20076;-47
2023/01/14 13:14:03;;;;;;;12.48;1.95;;;11.60;99.90;;;;;;4887588;29;20033;-46
2023/01/14 13:16:38;;;;;;;12.32;1.95;;;11.60;99.90;;;;;;4897517;29;20064;-46
2023/01/14 13:19:26;;;;;;;7.40;1.60;;;11.70;99.90;;;;;;4899703;29;20028;-50
2023/01/14 13:22:00;;;;;;;11.77;2.13;;;11.70;99.90;;;;;;4889809;29;20061;-50
2023/01/14 13:24:33;;;;;;;10.30;1.55;;;11.70;99.90;;;;;;4906533;29;20047;-54
2023/01/14 13:27:19;;;;;;;12.27;3.47;;;11.80;99.90;;;;;;4910726;29;20024;-50
2023/01/14 13:29:45;;;;;;;3.65;1.05;;;11.70;99.90;;;;;;4905377;29;20579;-52
2023/01/14 13:32:49;;;;;;;6.80;1.42;;;11.70;99.90;;;;;;4897525;29;20108;-50
2023/01/14 13:35:19;;;;;;;1.17;0.60;;;11.80;99.90;;;;;;4897060;29;20021;-49
2023/01/14 13:37:46;;;;;;;1.38;0.50;;;11.60;99.90;;;;;;4904780;29;20036;-48
2023/01/14 13:40:23;;;;;;;2.25;0.80;;;11.60;99.90;;;;;;4915898;29;20032;-44
2023/01/14 13:43:06;;;;;;;2.08;0.60;;;11.50;99.90;;;;;;4908471;29;20032;-48